createdAt,value
2022-10-01T00:01:16.307Z,100252.22
2022-10-01T00:03:46.730Z,100243.53
2022-10-01T00:06:17.056Z,100243.57
2022-10-01T00:08:47.592Z,100244.09
2022-10-01T00:11:18.190Z,100240.65
2022-10-01T00:13:48.559Z,100242.71
2022-10-01T00:16:19.483Z,100243.11
2022-10-01T00:18:49.707Z,100250.26
2022-10-01T00:21:19.812Z,100248.49
2022-10-01T00:23:49.808Z,100249.84
2022-10-01T00:26:20.080Z,100245.87
2022-10-01T00:28:50.419Z,100244.11
2022-10-01T00:31:21.032Z,100242.66
2022-10-01T00:33:51.595Z,100236.95
2022-10-01T00:36:21.901Z,100236.27
2022-10-01T00:38:52.192Z,100230.86
2022-10-01T00:41:22.529Z,100227.68
2022-10-01T00:43:52.502Z,100220.20
2022-10-01T00:46:22.618Z,100214.51
2022-10-01T00:48:52.665Z,100211.38
2022-10-01T00:51:23.001Z,100207.43
2022-10-01T00:53:53.722Z,100193.01
2022-10-01T00:56:24.350Z,100187.75
2022-10-01T00:58:54.995Z,100183.96
2022-10-01T01:01:25.696Z,100170.04
2022-10-01T01:03:56.190Z,100162.23
2022-10-01T01:06:27.203Z,100160.83
2022-10-01T01:08:56.861Z,100152.65
2022-10-01T01:11:27.037Z,100147.58
2022-10-01T01:13:57.511Z,100134.76
2022-10-01T01:16:28.041Z,100128.65
2022-10-01T01:18:58.672Z,100121.31
2022-10-01T01:21:28.911Z,100118.69
2022-10-01T01:23:59.255Z,100113.49
2022-10-01T01:26:29.506Z,100112.02
2022-10-01T01:29:00.373Z,100098.75
2022-10-01T01:31:30.462Z,100094.87
2022-10-01T01:34:00.472Z,100090.93
2022-10-01T01:36:30.633Z,100085.52
2022-10-01T01:39:00.651Z,100085.62
2022-10-01T01:41:31.685Z,100079.68
2022-10-01T01:44:01.747Z,100071.51
2022-10-01T01:46:32.120Z,100059.15
2022-10-01T01:49:02.268Z,100051.18
2022-10-01T01:51:33.001Z,100043.48
2022-10-01T01:54:03.430Z,100036.02
2022-10-01T01:56:34.176Z,100027.88
2022-10-01T01:59:05.143Z,100018.42
2022-10-01T02:01:35.706Z,100011.73
2022-10-01T02:04:05.291Z,100003.85
2022-10-01T02:06:36.002Z,99994.31
2022-10-01T02:09:06.739Z,99978.04
2022-10-01T02:11:36.853Z,99971.73
2022-10-01T02:14:07.211Z,99962.43
2022-10-01T02:16:37.606Z,99951.81
2022-10-01T02:19:07.852Z,99937.41
2022-10-01T02:21:38.473Z,99934.05
2022-10-01T02:24:09.006Z,99933.44
2022-10-01T02:26:39.308Z,99921.44
2022-10-01T02:29:09.892Z,99919.31
2022-10-01T02:31:40.256Z,99913.46
2022-10-01T02:34:12.650Z,99908.50
2022-10-01T02:36:41.505Z,99909.74
2022-10-01T02:39:12.311Z,99896.14
2022-10-01T02:41:42.299Z,99902.86
2022-10-01T02:44:12.405Z,99901.49
2022-10-01T02:46:42.661Z,99900.10
2022-10-01T02:49:13.168Z,99904.33
2022-10-01T02:51:43.738Z,99896.13
2022-10-01T02:54:13.916Z,99914.15
2022-10-01T02:56:48.787Z,99916.47
2022-10-01T02:59:14.419Z,99904.69
2022-10-01T03:01:44.930Z,99907.34
2022-10-01T03:04:15.356Z,99917.11
2022-10-01T03:06:46.166Z,99918.25
2022-10-01T03:09:16.492Z,99912.08
2022-10-01T03:11:47.016Z,99897.37
2022-10-01T03:14:17.444Z,99851.11
2022-10-01T03:16:47.965Z,99813.44
2022-10-01T03:19:18.678Z,99792.26
2022-10-01T03:21:48.720Z,99771.44
2022-10-01T03:24:19.063Z,99754.80
2022-10-01T03:26:49.680Z,99740.86
2022-10-01T03:29:20.078Z,99742.30
2022-10-01T03:31:50.579Z,99734.78
2022-10-01T03:34:20.616Z,99748.87
2022-10-01T03:36:51.470Z,99783.05
2022-10-01T03:39:21.719Z,99801.07
2022-10-01T03:41:51.990Z,99805.88
2022-10-01T03:44:22.608Z,99802.97
2022-10-01T03:46:53.266Z,99790.25
2022-10-01T03:49:23.745Z,99777.71
2022-10-01T03:51:54.360Z,99756.70
2022-10-01T03:54:24.904Z,99769.56
2022-10-01T03:56:55.510Z,99776.82
2022-10-01T03:59:25.807Z,99785.53
2022-10-01T04:01:56.539Z,99793.15
2022-10-01T04:04:26.996Z,99794.66
2022-10-01T04:06:57.573Z,99792.51
2022-10-01T04:09:28.178Z,99789.34
2022-10-01T04:11:58.414Z,99791.24
2022-10-01T04:14:29.011Z,99784.36
2022-10-01T04:16:59.597Z,99785.67
2022-10-01T04:19:29.898Z,99787.35
2022-10-01T04:22:00.469Z,99787.94
2022-10-01T04:24:31.071Z,99785.93
2022-10-01T04:27:01.653Z,99791.23
2022-10-01T04:29:33.928Z,99788.33
2022-10-01T04:32:02.849Z,99788.24
2022-10-01T04:34:33.431Z,99788.34
2022-10-01T04:37:04.009Z,99785.25
2022-10-01T04:39:34.597Z,99779.78
2022-10-01T04:42:04.873Z,99787.38
2022-10-01T04:44:35.465Z,99779.90
2022-10-01T04:47:06.077Z,99780.48
2022-10-01T04:49:36.604Z,99781.81
2022-10-01T04:52:07.253Z,99784.60
2022-10-01T04:54:37.788Z,99776.30
2022-10-01T04:57:07.974Z,99773.93
2022-10-01T04:59:38.646Z,99775.37
2022-10-01T05:02:09.217Z,99768.93
2022-10-01T05:04:39.718Z,99772.92
2022-10-01T05:07:10.290Z,99764.69
2022-10-01T05:09:40.878Z,99766.01
2022-10-01T05:12:11.431Z,99774.11
2022-10-01T05:14:42.109Z,99755.44
2022-10-01T05:17:12.677Z,99759.46
2022-10-01T05:19:43.204Z,99763.56
2022-10-01T05:22:13.824Z,99762.52
2022-10-01T05:24:44.367Z,99759.93
2022-10-01T05:27:14.938Z,99760.01
2022-10-01T05:29:45.552Z,99767.02
2022-10-01T05:32:16.196Z,99771.37
2022-10-01T05:34:51.199Z,99766.35
2022-10-01T05:37:17.298Z,99763.51
2022-10-01T05:39:47.858Z,99757.74
2022-10-01T05:42:18.457Z,99757.14
2022-10-01T05:44:48.988Z,99771.62
2022-10-01T05:47:19.552Z,99773.46
2022-10-01T05:49:50.114Z,99778.19
2022-10-01T05:52:20.696Z,99786.84
2022-10-01T05:54:51.319Z,99788.03
2022-10-01T05:57:21.850Z,99791.00
2022-10-01T05:59:52.349Z,99795.80
2022-10-01T06:02:22.986Z,99792.43
2022-10-01T06:04:53.483Z,99805.58
2022-10-01T06:07:24.035Z,99804.27
2022-10-01T06:09:54.738Z,99806.39
2022-10-01T06:12:25.148Z,99820.09
2022-10-01T06:14:55.713Z,99814.27
2022-10-01T06:17:26.275Z,99811.78
2022-10-01T06:19:56.922Z,99817.80
2022-10-01T06:22:27.452Z,99812.75
2022-10-01T06:24:57.913Z,99813.37
2022-10-01T06:27:28.520Z,99817.70
2022-10-01T06:29:59.026Z,99821.97
2022-10-01T06:32:34.081Z,99815.52
2022-10-01T06:35:00.090Z,99816.66
2022-10-01T06:37:30.739Z,99817.41
2022-10-01T06:40:01.179Z,99817.01
2022-10-01T06:42:31.722Z,99809.04
2022-10-01T06:45:02.250Z,99817.10
2022-10-01T06:47:32.808Z,99823.07
2022-10-01T06:50:03.354Z,99820.51
2022-10-01T06:52:33.865Z,99825.29
2022-10-01T06:55:04.408Z,99827.50
2022-10-01T06:57:34.924Z,99826.91
2022-10-01T07:00:05.485Z,99829.06
2022-10-01T07:02:36.018Z,99830.72
2022-10-01T07:05:06.530Z,99831.28
2022-10-01T07:07:37.086Z,99833.32
2022-10-01T07:10:07.555Z,99832.06
2022-10-01T07:15:08.718Z,99831.71
2022-10-01T07:17:39.138Z,99838.39
2022-10-01T07:20:09.663Z,99840.39
2022-10-01T07:22:40.177Z,99842.85
2022-10-01T07:25:10.708Z,99842.09
2022-10-01T07:27:41.200Z,99845.64
2022-10-01T07:30:11.734Z,99846.43
2022-10-01T07:32:42.354Z,99843.61
2022-10-01T07:35:12.796Z,99846.61
2022-10-01T07:37:43.273Z,99854.18
2022-10-01T07:40:13.806Z,99853.02
2022-10-01T07:42:44.306Z,99860.43
2022-10-01T07:45:14.808Z,99860.48
2022-10-01T07:47:45.410Z,99863.94
2022-10-01T07:50:15.931Z,99867.74
2022-10-01T07:52:46.340Z,99867.30
2022-10-01T07:55:16.885Z,99874.32
2022-10-01T07:57:47.377Z,99876.56
2022-10-01T08:00:17.897Z,99884.58
2022-10-01T08:02:48.414Z,99885.68
2022-10-01T08:05:18.939Z,99891.19
2022-10-01T08:07:49.442Z,99892.70
2022-10-01T08:10:19.951Z,99902.04
2022-10-01T08:12:50.431Z,99904.59
2022-10-01T08:15:20.790Z,99901.08
2022-10-01T08:17:51.276Z,99901.69
2022-10-01T08:20:21.684Z,99899.67
2022-10-01T08:22:52.141Z,99906.83
2022-10-01T08:25:22.361Z,99901.85
2022-10-01T08:27:52.979Z,99907.73
2022-10-01T08:30:23.389Z,99905.57
2022-10-01T08:32:53.907Z,99908.74
2022-10-01T08:35:24.400Z,99911.02
2022-10-01T08:37:54.937Z,99902.47
2022-10-01T08:40:25.687Z,99909.66
2022-10-01T08:42:55.886Z,99917.08
2022-10-01T08:45:26.613Z,99912.81
2022-10-01T08:47:57.864Z,99910.74
2022-10-01T08:50:27.304Z,99916.54
2022-10-01T08:52:57.754Z,99922.58
2022-10-01T08:55:28.248Z,99916.19
2022-10-01T08:57:58.759Z,99918.61
2022-10-01T09:00:29.211Z,99928.15
2022-10-01T09:02:59.628Z,99933.29
2022-10-01T09:05:30.165Z,99945.72
2022-10-01T09:08:00.587Z,99949.34
2022-10-01T09:10:31.012Z,99949.89
2022-10-01T09:13:01.490Z,99956.39
2022-10-01T09:15:31.977Z,99956.89
2022-10-01T09:18:02.137Z,99959.08
2022-10-01T09:20:32.598Z,99961.65
2022-10-01T09:23:03.051Z,99965.42
2022-10-01T09:25:33.500Z,99978.42
2022-10-01T09:28:04.076Z,99972.26
2022-10-01T09:30:34.449Z,99973.34
2022-10-01T09:33:04.830Z,99975.29
2022-10-01T09:35:35.019Z,99975.11
2022-10-01T09:38:05.510Z,99978.40
2022-10-01T09:40:35.879Z,99980.12
2022-10-01T09:43:06.308Z,99982.18
2022-10-01T09:45:36.806Z,99977.64
2022-10-01T09:48:07.196Z,99983.70
2022-10-01T09:50:37.743Z,99981.85
2022-10-01T09:53:08.387Z,99984.58
2022-10-01T09:55:38.722Z,99983.86
2022-10-01T09:58:09.141Z,99986.15
2022-10-01T10:00:39.592Z,99986.67
2022-10-01T10:03:10.124Z,99984.76
2022-10-01T10:05:40.518Z,99990.14
2022-10-01T10:08:10.946Z,99992.61
2022-10-01T10:10:41.323Z,99993.92
2022-10-01T10:13:11.722Z,99997.29
2022-10-01T10:15:42.250Z,99996.18
2022-10-01T10:18:12.571Z,100003.61
2022-10-01T10:20:43.001Z,100003.40
2022-10-01T10:23:13.443Z,100002.75
2022-10-01T10:25:43.943Z,100008.36
2022-10-01T10:28:14.304Z,100011.29
2022-10-01T10:30:44.695Z,100015.79
2022-10-01T10:33:15.109Z,100014.65
2022-10-01T10:35:45.500Z,100019.93
2022-10-01T10:38:15.912Z,100018.46
2022-10-01T10:40:46.321Z,100023.73
2022-10-01T10:43:16.706Z,100033.34
2022-10-01T10:45:47.146Z,100028.83
2022-10-01T10:48:17.596Z,100028.07
2022-10-01T10:50:47.934Z,100029.14
2022-10-01T10:53:18.361Z,100031.31
2022-10-01T10:55:48.755Z,100037.88
2022-10-01T10:58:19.177Z,100038.31
2022-10-01T11:00:49.598Z,100055.26
2022-10-01T11:03:20.044Z,100063.08
2022-10-01T11:05:50.434Z,100070.32
2022-10-01T11:08:20.812Z,100068.77
2022-10-01T11:10:51.266Z,100082.97
2022-10-01T11:13:21.640Z,100055.40
2022-10-01T11:15:52.149Z,100046.40
2022-10-01T11:18:22.734Z,100048.31
2022-10-01T11:20:52.888Z,100043.64
2022-10-01T11:23:23.273Z,100044.44
2022-10-01T11:25:53.690Z,100052.29
2022-10-01T11:28:24.175Z,100054.12
2022-10-01T11:30:54.628Z,100049.62
2022-10-01T11:33:24.988Z,100057.09
2022-10-01T11:35:55.395Z,100050.51
2022-10-01T11:38:25.821Z,100052.29
2022-10-01T11:40:56.236Z,100066.43
2022-10-01T11:43:26.649Z,100074.40
2022-10-01T11:45:57.213Z,100116.88
2022-10-01T11:48:27.505Z,100133.76
2022-10-01T11:50:57.903Z,100162.00
2022-10-01T11:53:28.311Z,100153.22
2022-10-01T11:55:58.758Z,100141.55
2022-10-01T11:58:29.209Z,100142.95
2022-10-01T12:00:59.647Z,100145.85
2022-10-01T12:03:30.100Z,100155.83
2022-10-01T12:06:00.544Z,100162.18
2022-10-01T12:08:31.016Z,100166.70
2022-10-01T12:11:01.446Z,100178.27
2022-10-01T12:13:31.912Z,100171.85
2022-10-01T12:16:02.385Z,100177.14
2022-10-01T12:18:32.831Z,100184.59
2022-10-01T12:21:03.243Z,100178.53
2022-10-01T12:23:33.775Z,100175.22
2022-10-01T12:26:04.203Z,100175.10
2022-10-01T12:28:34.575Z,100163.31
2022-10-01T12:31:05.138Z,100160.60
2022-10-01T12:33:35.520Z,100183.53
2022-10-01T12:36:06.036Z,100180.61
2022-10-01T12:38:36.380Z,100180.53
2022-10-01T12:41:06.822Z,100178.89
2022-10-01T12:43:37.264Z,100183.68
2022-10-01T12:46:07.785Z,100190.77
2022-10-01T12:48:38.174Z,100198.67
2022-10-01T12:51:08.720Z,100198.73
2022-10-01T12:53:39.070Z,100196.39
2022-10-01T12:56:09.649Z,100204.90
2022-10-01T12:58:39.981Z,100208.99
2022-10-01T13:01:10.456Z,100217.97
2022-10-01T13:03:40.939Z,100208.75
2022-10-01T13:06:11.235Z,100223.19
2022-10-01T13:08:41.667Z,100225.41
2022-10-01T13:11:12.078Z,100233.76
2022-10-01T13:13:42.465Z,100233.82
2022-10-01T13:16:12.923Z,100240.68
2022-10-01T13:18:43.315Z,100243.88
2022-10-01T13:21:13.819Z,100246.91
2022-10-01T13:23:44.115Z,100248.45
2022-10-01T13:26:14.527Z,100258.68
2022-10-01T13:28:44.998Z,100265.52
2022-10-01T13:31:15.401Z,100269.54
2022-10-01T13:33:45.759Z,100264.02
2022-10-01T13:36:16.143Z,100267.18
2022-10-01T13:38:46.541Z,100263.66
2022-10-01T13:41:17.037Z,100261.71
2022-10-01T13:43:47.424Z,100259.66
2022-10-01T13:46:17.850Z,100267.29
2022-10-01T13:48:48.253Z,100267.45
2022-10-01T13:51:18.637Z,100272.97
2022-10-01T13:53:49.012Z,100278.43
2022-10-01T13:56:19.166Z,100283.87
2022-10-01T13:58:50.061Z,100289.41
2022-10-01T14:01:24.109Z,100283.86
2022-10-01T14:03:50.971Z,100290.16
2022-10-01T14:06:21.404Z,100296.22
2022-10-01T14:08:51.747Z,100292.70
2022-10-01T14:11:22.168Z,100289.30
2022-10-01T14:13:52.516Z,100296.82
2022-10-01T14:16:22.930Z,100292.38
2022-10-01T14:18:53.303Z,100293.94
2022-10-01T14:21:23.778Z,100298.32
2022-10-01T14:23:54.084Z,100298.40
2022-10-01T14:26:24.445Z,100300.18
2022-10-01T14:28:54.841Z,100309.75
2022-10-01T14:31:25.329Z,100317.05
2022-10-01T14:33:55.710Z,100322.23
2022-10-01T14:36:26.021Z,100328.44
2022-10-01T14:38:56.412Z,100337.09
2022-10-01T14:41:26.823Z,100329.30
2022-10-01T14:43:57.318Z,100332.26
2022-10-01T14:46:27.678Z,100340.41
2022-10-01T14:48:58.006Z,100341.06
2022-10-01T14:51:28.402Z,100348.72
2022-10-01T14:53:58.799Z,100356.16
2022-10-01T14:56:29.213Z,100359.01
2022-10-01T14:58:59.613Z,100368.08
2022-10-01T15:01:30.090Z,100378.90
2022-10-01T15:04:00.497Z,100381.64
2022-10-01T15:06:30.942Z,100386.18
2022-10-01T15:09:00.976Z,100385.06
2022-10-01T15:11:31.561Z,100386.70
2022-10-01T15:14:01.805Z,100390.44
2022-10-01T15:16:32.753Z,100388.84
2022-10-01T15:19:02.688Z,100391.19
2022-10-01T15:21:33.086Z,100398.54
2022-10-01T15:24:03.427Z,100409.47
2022-10-01T15:26:34.213Z,100410.39
2022-10-01T15:29:04.254Z,100420.44
2022-10-01T15:31:34.802Z,100430.54
2022-10-01T15:34:05.081Z,100435.27
2022-10-01T15:36:35.922Z,100450.17
2022-10-01T15:39:05.894Z,100449.30
2022-10-01T15:41:36.327Z,100453.39
2022-10-01T15:44:06.722Z,100457.66
2022-10-01T15:46:37.314Z,100463.52
2022-10-01T15:49:07.597Z,100465.44
2022-10-01T15:51:38.023Z,100464.40
2022-10-01T15:54:08.441Z,100468.77
2022-10-01T15:56:38.877Z,100469.97
2022-10-01T15:59:08.952Z,100479.57
2022-10-01T16:01:39.445Z,100481.58
2022-10-01T16:04:09.807Z,100486.23
2022-10-01T16:06:40.253Z,100493.35
2022-10-01T16:09:10.667Z,100498.49
2022-10-01T16:11:41.098Z,100497.95
2022-10-01T16:14:11.520Z,100500.63
2022-10-01T16:16:42.017Z,100506.81
2022-10-01T16:19:12.416Z,100508.55
2022-10-01T16:21:42.832Z,100510.68
2022-10-01T16:24:13.349Z,100515.79
2022-10-01T16:26:43.740Z,100521.36
2022-10-01T16:29:14.217Z,100519.35
2022-10-01T16:31:44.787Z,100526.17
2022-10-01T16:34:15.629Z,100530.86
2022-10-01T16:36:46.472Z,100535.86
2022-10-01T16:39:16.785Z,100543.55
2022-10-01T16:42:01.370Z,100554.85
2022-10-01T16:44:17.656Z,100558.62
2022-10-01T16:46:48.087Z,100564.30
2022-10-01T16:49:18.540Z,100564.38
2022-10-01T16:51:49.132Z,100577.80
2022-10-01T16:54:19.381Z,100584.52
2022-10-01T16:56:49.815Z,100589.55
2022-10-01T16:59:20.361Z,100590.06
2022-10-01T17:01:50.713Z,100593.93
2022-10-01T17:04:21.207Z,100590.78
2022-10-01T17:06:51.516Z,100591.90
2022-10-01T17:09:21.961Z,100593.94
2022-10-01T17:11:52.397Z,100597.84
2022-10-01T17:14:22.827Z,100606.72
2022-10-01T17:16:53.430Z,100609.08
2022-10-01T17:19:23.733Z,100612.92
2022-10-01T17:21:54.319Z,100614.94
2022-10-01T17:24:24.302Z,100613.65
2022-10-01T17:26:54.755Z,100617.76
2022-10-01T17:29:25.283Z,100620.52
2022-10-01T17:31:55.685Z,100626.10
2022-10-01T17:34:26.103Z,100634.43
2022-10-01T17:36:56.559Z,100638.00
2022-10-01T17:39:27.102Z,100643.31
2022-10-01T17:41:57.449Z,100646.73
2022-10-01T17:44:27.899Z,100651.18
2022-10-01T17:46:58.355Z,100650.03
2022-10-01T17:49:28.848Z,100653.68
2022-10-01T17:51:59.290Z,100655.03
2022-10-01T17:54:29.753Z,100660.46
2022-10-01T17:57:00.199Z,100666.59
2022-10-01T17:59:30.661Z,100666.79
2022-10-01T18:02:01.180Z,100671.75
2022-10-01T18:04:31.589Z,100678.11
2022-10-01T18:07:02.047Z,100682.40
2022-10-01T18:09:32.500Z,100690.09
2022-10-01T18:12:02.946Z,100691.78
2022-10-01T18:14:33.423Z,100698.69
2022-10-01T18:17:03.856Z,100698.35
2022-10-01T18:19:54.171Z,100702.98
2022-10-01T18:22:13.372Z,100711.54
2022-10-01T18:24:35.209Z,100720.28
2022-10-01T18:27:05.662Z,100718.31
2022-10-01T18:29:36.105Z,100719.67
2022-10-01T18:32:06.562Z,100719.59
2022-10-01T18:34:36.997Z,100724.92
2022-10-01T18:37:07.414Z,100736.35
2022-10-01T18:39:37.873Z,100744.73
2022-10-01T18:42:08.032Z,100751.99
2022-10-01T18:44:38.484Z,100758.85
2022-10-01T18:47:08.926Z,100766.61
2022-10-01T18:49:39.375Z,100769.04
2022-10-01T18:52:09.825Z,100767.96
2022-10-01T18:54:40.286Z,100769.50
2022-10-01T18:57:10.862Z,100766.82
2022-10-01T18:59:41.230Z,100767.26
2022-10-01T19:02:11.809Z,100773.85
2022-10-01T19:04:42.142Z,100774.66
2022-10-01T19:07:12.585Z,100776.86
2022-10-01T19:09:43.040Z,100775.41
2022-10-01T19:12:13.474Z,100773.37
2022-10-01T19:14:43.923Z,100780.02
2022-10-01T19:17:14.375Z,100783.13
2022-10-01T19:19:44.804Z,100791.10
2022-10-01T19:22:15.235Z,100790.97
2022-10-01T19:24:45.664Z,100793.76
2022-10-01T19:27:16.089Z,100793.30
2022-10-01T19:29:46.551Z,100795.55
2022-10-01T19:32:16.983Z,100801.35
2022-10-01T19:34:47.425Z,100802.83
2022-10-01T19:37:17.853Z,100808.80
2022-10-01T19:39:48.274Z,100813.06
2022-10-01T19:42:18.729Z,100815.36
2022-10-01T19:44:49.149Z,100822.60
2022-10-01T19:47:19.590Z,100827.06
2022-10-01T19:49:50.046Z,100831.04
2022-10-01T19:52:20.525Z,100836.06
2022-10-01T19:54:50.922Z,100847.06
2022-10-01T19:57:21.358Z,100857.69
2022-10-01T19:59:51.825Z,100862.05
2022-10-01T20:02:22.304Z,100863.21
2022-10-01T20:04:52.759Z,100861.36
2022-10-01T20:07:23.322Z,100860.46
2022-10-01T20:09:53.658Z,100861.26
2022-10-01T20:12:24.330Z,100864.07
2022-10-01T20:14:54.674Z,100865.01
2022-10-01T20:17:25.285Z,100870.40
2022-10-01T20:19:55.631Z,100871.75
2022-10-01T20:22:25.888Z,100872.43
2022-10-01T20:24:56.226Z,100877.33
2022-10-01T20:27:26.703Z,100880.09
2022-10-01T20:29:56.894Z,100882.41
2022-10-01T20:32:27.319Z,100884.51
2022-10-01T20:34:58.258Z,100883.85
2022-10-01T20:37:28.551Z,100884.95
2022-10-01T20:39:59.287Z,100890.11
2022-10-01T20:42:29.263Z,100887.16
2022-10-01T20:44:59.380Z,100885.31
2022-10-01T20:47:29.925Z,100885.06
2022-10-01T20:50:00.484Z,100888.09
2022-10-01T20:52:31.102Z,100895.16
2022-10-01T20:55:01.414Z,100898.19
2022-10-01T20:57:31.959Z,100899.41
2022-10-01T21:00:02.528Z,100902.56
2022-10-01T21:02:33.237Z,100902.31
2022-10-01T21:05:03.893Z,100904.35
2022-10-01T21:07:34.003Z,100909.16
2022-10-01T21:10:04.494Z,100915.85
2022-10-01T21:12:35.085Z,100919.97
2022-10-01T21:15:05.363Z,100920.79
2022-10-01T21:17:36.219Z,100923.03
2022-10-01T21:20:06.687Z,100918.42
2022-10-01T21:22:37.395Z,100919.65
2022-10-01T21:25:07.910Z,100918.88
2022-10-01T21:27:37.930Z,100918.74
2022-10-01T21:30:08.050Z,100921.12
2022-10-01T21:32:38.813Z,100919.84
2022-10-01T21:35:09.148Z,100917.36
2022-10-01T21:37:39.305Z,100918.05
2022-10-01T21:40:09.617Z,100917.99
2022-10-01T21:42:39.874Z,100915.35
2022-10-01T21:45:09.825Z,100919.89
2022-10-01T21:47:39.850Z,100920.58
2022-10-01T21:50:10.697Z,100920.31
2022-10-01T21:52:41.577Z,100919.76
2022-10-01T21:55:12.458Z,100913.57
2022-10-01T21:57:42.967Z,100912.40
2022-10-01T22:00:12.979Z,100914.33
2022-10-01T22:02:43.547Z,100916.22
2022-10-01T22:05:13.802Z,100918.20
2022-10-01T22:07:43.944Z,100920.02
2022-10-01T22:10:14.136Z,100921.38
2022-10-01T22:12:44.357Z,100923.36
2022-10-01T22:15:14.643Z,100924.34
2022-10-01T22:17:44.934Z,100927.28
2022-10-01T22:20:15.284Z,100931.17
2022-10-01T22:22:45.202Z,100934.78
2022-10-01T22:25:15.220Z,100930.77
2022-10-01T22:27:45.450Z,100931.15
2022-10-01T22:30:15.826Z,100934.98
2022-10-01T22:32:46.375Z,100935.51
2022-10-01T22:35:16.743Z,100942.01
2022-10-01T22:37:47.176Z,100943.12
2022-10-01T22:40:17.965Z,100946.42
2022-10-01T22:42:48.528Z,100950.60
2022-10-01T22:45:18.983Z,100953.28
2022-10-01T22:47:49.239Z,100959.33
2022-10-01T22:50:19.518Z,100961.25
2022-10-01T22:52:49.985Z,100969.24
2022-10-01T22:55:19.922Z,100967.56
2022-10-01T22:57:50.732Z,100972.66
2022-10-01T23:00:20.856Z,100975.50
2022-10-01T23:02:51.353Z,100972.59
2022-10-01T23:05:21.622Z,100980.93
2022-10-01T23:07:51.919Z,100982.01
2022-10-01T23:10:22.478Z,100978.08
2022-10-01T23:12:53.358Z,100983.84
2022-10-01T23:15:24.129Z,100984.10
2022-10-01T23:17:54.564Z,100992.65
2022-10-01T23:20:24.690Z,100991.80
2022-10-01T23:22:54.928Z,100993.48
2022-10-01T23:25:25.572Z,101001.09
2022-10-01T23:27:56.118Z,101003.63
2022-10-01T23:30:26.701Z,101000.41
2022-10-01T23:32:57.190Z,100998.14
2022-10-01T23:35:27.213Z,101003.48
2022-10-01T23:37:58.176Z,101006.97
2022-10-01T23:40:28.808Z,101004.57
2022-10-01T23:42:59.376Z,101004.62
2022-10-01T23:45:30.128Z,101008.00
2022-10-01T23:48:00.949Z,101008.13
2022-10-01T23:50:31.730Z,101011.00
2022-10-01T23:53:01.800Z,101012.19
2022-10-01T23:55:32.099Z,101014.77
2022-10-01T23:58:03.424Z,101019.14
